Terminal Aerodrome Forecast
Issued by NWS

Home | Current Version | Previous Version | Text Only | Print | Product List | Glossary On
Versions: 1 2 3 4 5 6 7 8 9 10 11 12 13 14
000
FTUS43 KEAX 140500
TAFMKC
TAF
KMKC 140520Z 1406/1506 34015G25KT P6SM OVC012
      TEMPO 1406/1408 4SM -RASN BR OVC009
     FM141200 34018G29KT 4SM -SN BR OVC015
     FM141400 34020G29KT P6SM BKN015
     FM141800 35016G25KT P6SM BKN035
     FM150000 36008KT P6SM SCT050=

USA.gov is the U.S. government's official web portal to all federal, state and local government web resources and services.